Time;durP1;ratioP1;P1;durP2;ratioP2;P2;SDS_P1;SDS_P2;PMS_P1;PMS_P2;Temp;Humidity;BMP_temperature;BMP_pressure;BME280_temperature;BME280_humidity;BME280_pressure;Samples;Min_cycle;Max_cycle;Signal;HPM_P1;HPM_P2
2021/04/24 00:00:50;;;;;;;22.27;13.97;;;;;;;;;;5039965;28;20417;-96
2021/04/24 00:03:16;;;;;;;19.40;12.30;;;;;;;;;;5032230;28;20447;-96
2021/04/24 00:05:45;;;;;;;17.70;13.43;;;;;;;;;;5013266;28;20447;-96
2021/04/24 00:08:33;;;;;;;17.07;14.10;;;;;;;;;;5035024;28;20492;-96
2021/04/24 00:11:01;;;;;;;23.50;16.50;;;;;;;;;;5038179;23;20504;-96
2021/04/24 00:13:27;;;;;;;21.10;15.50;;;;;;;;;;5064309;23;20485;-96
2021/04/24 00:15:53;;;;;;;21.20;13.90;;;;;;;;;;5064851;28;20446;-96
2021/04/24 00:18:19;;;;;;;19.57;13.73;;;;;;;;;;5069497;28;20466;-96
2021/04/24 00:23:11;;;;;;;15.80;12.60;;;;;;;;;;5176002;22;20485;-96
2021/04/24 00:28:08;;;;;;;18.60;12.33;;;;;;;;;;5105716;22;20563;-96
2021/04/24 00:33:04;;;;;;;16.67;13.43;;;;;;;;;;5149270;22;20549;-96
2021/04/24 00:35:30;;;;;;;18.17;13.27;;;;;;;;;;5062769;28;20427;-96
2021/04/24 00:37:56;;;;;;;18.77;12.80;;;;;;;;;;5060387;28;20474;-96
2021/04/24 00:40:23;;;;;;;16.20;12.53;;;;;;;;;;5034895;28;20439;-96
2021/04/24 00:42:50;;;;;;;21.57;13.87;;;;;;;;;;5045975;28;20454;-96
2021/04/24 00:45:19;;;;;;;19.73;13.97;;;;;;;;;;5048670;28;20969;-96
2021/04/24 00:47:45;;;;;;;17.63;13.77;;;;;;;;;;5046186;28;20501;-96
2021/04/24 00:50:13;;;;;;;16.57;12.20;;;;;;;;;;5047871;28;20447;-96
2021/04/24 00:52:39;;;;;;;15.77;12.73;;;;;;;;;;5049912;28;20461;-96
2021/04/24 00:55:05;;;;;;;18.57;13.33;;;;;;;;;;5044793;28;20447;-96
2021/04/24 00:57:32;;;;;;;22.40;14.47;;;;;;;;;;5050211;28;20450;-96
2021/04/24 00:59:59;;;;;;;17.20;13.30;;;;;;;;;;5050257;28;20454;-96
2021/04/24 01:02:25;;;;;;;17.47;13.00;;;;;;;;;;5052884;28;20454;-96
2021/04/24 01:04:51;;;;;;;19.70;14.67;;;;;;;;;;5045339;28;20462;-96
2021/04/24 01:07:17;;;;;;;18.63;14.47;;;;;;;;;;5046057;28;20865;-96
2021/04/24 01:09:43;;;;;;;15.57;13.60;;;;;;;;;;5047568;28;20446;-96
2021/04/24 01:12:09;;;;;;;21.57;15.60;;;;;;;;;;5049125;28;21008;-95
2021/04/24 01:14:36;;;;;;;23.30;13.87;;;;;;;;;;5045937;28;20450;-96
2021/04/24 01:17:02;;;;;;;20.50;14.80;;;;;;;;;;5048168;28;20455;-95
2021/04/24 01:19:28;;;;;;;20.00;13.50;;;;;;;;;;5045524;28;20527;-96
2021/04/24 01:22:02;;;;;;;20.80;14.30;;;;;;;;;;5048567;28;20447;-95
2021/04/24 01:24:28;;;;;;;21.97;15.80;;;;;;;;;;5044291;28;20473;-95
2021/04/24 01:26:54;;;;;;;26.57;14.77;;;;;;;;;;5045101;28;20483;-94
2021/04/24 01:29:20;;;;;;;14.80;12.10;;;;;;;;;;5040389;28;20455;-93
2021/04/24 01:31:46;;;;;;;21.13;14.20;;;;;;;;;;5047993;28;20478;-96
2021/04/24 01:34:15;;;;;;;21.83;14.37;;;;;;;;;;5072159;28;20421;-96
2021/04/24 01:37:05;;;;;;;17.57;13.93;;;;;;;;;;5040524;28;20450;-96
2021/04/24 01:39:32;;;;;;;19.40;15.07;;;;;;;;;;5057541;28;20465;-96
2021/04/24 01:41:59;;;;;;;19.53;14.70;;;;;;;;;;5063442;28;20441;-96
2021/04/24 01:44:25;;;;;;;22.97;16.47;;;;;;;;;;5066938;28;20454;-96
2021/04/24 01:46:51;;;;;;;19.40;15.27;;;;;;;;;;5051168;28;20533;-96
2021/04/24 01:49:17;;;;;;;23.77;14.70;;;;;;;;;;5061230;28;20450;-96
2021/04/24 01:51:44;;;;;;;24.17;15.90;;;;;;;;;;5055959;28;21224;-95
2021/04/24 01:54:10;;;;;;;19.00;14.50;;;;;;;;;;5048930;28;20447;-96
2021/04/24 01:56:44;;;;;;;20.47;15.37;;;;;;;;;;5053747;28;20480;-96
2021/04/24 01:59:10;;;;;;;20.40;13.63;;;;;;;;;;5053548;28;20470;-96
2021/04/24 02:01:36;;;;;;;19.60;14.40;;;;;;;;;;5058915;28;20470;-96
2021/04/24 02:04:02;;;;;;;18.90;14.70;;;;;;;;;;5061064;28;20447;-96
2021/04/24 02:06:28;;;;;;;17.70;13.70;;;;;;;;;;5049919;28;20493;-96
2021/04/24 02:14:32;;;;;;;18.00;14.53;;;;;;;;;;5105270;22;20499;-96
2021/04/24 02:16:58;;;;;;;24.40;15.97;;;;;;;;;;5084247;28;20457;-96
2021/04/24 02:19:24;;;;;;;18.67;13.87;;;;;;;;;;5084389;28;20483;-96
2021/04/24 02:21:53;;;;;;;19.83;11.10;;;;;;;;;;5093919;28;20446;-96
2021/04/24 02:24:20;;;;;;;19.07;12.33;;;;;;;;;;5090430;28;20499;-96
2021/04/24 02:26:46;;;;;;;22.33;13.50;;;;;;;;;;5090126;28;20492;-96
2021/04/24 02:29:12;;;;;;;19.20;14.03;;;;;;;;;;5086420;28;20456;-96
2021/04/24 02:31:42;;;;;;;17.77;13.13;;;;;;;;;;5084018;28;20445;-96
2021/04/24 02:34:08;;;;;;;16.40;12.47;;;;;;;;;;5086917;28;20453;-96
2021/04/24 02:36:35;;;;;;;23.40;12.20;;;;;;;;;;5086223;28;20442;-96
2021/04/24 02:39:17;;;;;;;18.10;11.73;;;;;;;;;;5090171;28;20450;-96
2021/04/24 02:41:43;;;;;;;22.47;11.80;;;;;;;;;;5089442;28;20437;-96
2021/04/24 02:44:09;;;;;;;14.17;10.90;;;;;;;;;;5084028;28;20468;-96
2021/04/24 02:46:35;;;;;;;15.73;12.80;;;;;;;;;;5071962;28;20476;-96
2021/04/24 02:49:03;;;;;;;22.07;16.33;;;;;;;;;;5083381;28;20461;-95
2021/04/24 02:51:29;;;;;;;21.67;15.37;;;;;;;;;;5083852;28;20493;-95
2021/04/24 02:53:55;;;;;;;17.37;13.17;;;;;;;;;;5083177;28;20449;-96
2021/04/24 02:56:21;;;;;;;18.10;12.90;;;;;;;;;;5085050;28;20492;-96
2021/04/24 02:58:47;;;;;;;21.60;13.00;;;;;;;;;;5081825;28;20523;-96
2021/04/24 03:01:13;;;;;;;17.10;12.40;;;;;;;;;;5082061;28;20449;-96
2021/04/24 03:03:39;;;;;;;23.47;12.00;;;;;;;;;;5080905;28;20502;-96
2021/04/24 03:06:06;;;;;;;16.00;11.70;;;;;;;;;;5084050;28;20511;-96
2021/04/24 03:08:32;;;;;;;19.83;11.83;;;;;;;;;;5088649;28;20515;-96
2021/04/24 03:11:00;;;;;;;16.07;11.77;;;;;;;;;;5091120;22;20796;-96
2021/04/24 03:13:27;;;;;;;16.03;11.87;;;;;;;;;;5048100;28;20457;-96
2021/04/24 03:15:53;;;;;;;16.70;11.80;;;;;;;;;;5063362;28;20504;-95
2021/04/24 03:18:19;;;;;;;18.30;12.20;;;;;;;;;;5045494;28;20453;-95
2021/04/24 03:20:45;;;;;;;15.33;11.50;;;;;;;;;;5060029;28;20521;-95
2021/04/24 03:23:12;;;;;;;17.10;12.20;;;;;;;;;;5062192;28;20466;-94
2021/04/24 03:25:38;;;;;;;20.20;12.50;;;;;;;;;;5060795;28;20466;-95
2021/04/24 03:28:04;;;;;;;14.93;11.33;;;;;;;;;;5064810;28;20494;-94
2021/04/24 03:30:30;;;;;;;17.53;11.57;;;;;;;;;;5071850;28;20441;-96
2021/04/24 03:32:56;;;;;;;19.97;11.90;;;;;;;;;;5076947;28;20442;-96
2021/04/24 03:35:22;;;;;;;15.07;12.00;;;;;;;;;;5065876;28;20466;-96
2021/04/24 03:37:49;;;;;;;15.20;12.30;;;;;;;;;;5064286;28;20480;-96
2021/04/24 03:40:16;;;;;;;16.60;11.90;;;;;;;;;;5048163;28;20455;-96
2021/04/24 03:42:42;;;;;;;18.67;13.07;;;;;;;;;;5066607;28;20460;-96
2021/04/24 03:45:18;;;;;;;28.87;18.40;;;;;;;;;;5052030;28;20599;-96
2021/04/24 03:47:44;;;;;;;19.37;15.07;;;;;;;;;;5051255;28;20496;-96
2021/04/24 03:50:11;;;;;;;19.43;14.97;;;;;;;;;;5066231;28;20541;-96
2021/04/24 03:52:37;;;;;;;23.83;15.40;;;;;;;;;;5055340;28;20454;-96
2021/04/24 03:55:03;;;;;;;19.03;13.07;;;;;;;;;;5062657;28;20464;-96
2021/04/24 03:57:30;;;;;;;27.83;13.73;;;;;;;;;;5064120;28;20499;-96
2021/04/24 03:59:57;;;;;;;18.83;14.07;;;;;;;;;;5063289;28;20462;-96
2021/04/24 04:02:23;;;;;;;22.43;13.77;;;;;;;;;;5043312;28;20797;-95
2021/04/24 04:04:49;;;;;;;20.43;13.13;;;;;;;;;;5062008;28;20509;-96
2021/04/24 04:07:15;;;;;;;16.50;11.30;;;;;;;;;;5057713;28;20482;-96
2021/04/24 04:09:42;;;;;;;17.83;10.57;;;;;;;;;;5065746;28;20454;-96
2021/04/24 04:12:08;;;;;;;46.57;24.17;;;;;;;;;;5062417;28;21028;-96
2021/04/24 04:14:35;;;;;;;13.20;11.03;;;;;;;;;;5062129;28;20457;-96
2021/04/24 04:17:01;;;;;;;18.03;12.70;;;;;;;;;;5060356;28;20473;-96
2021/04/24 04:19:27;;;;;;;19.47;12.80;;;;;;;;;;5064511;28;20454;-95
2021/04/24 04:21:55;;;;;;;18.67;12.83;;;;;;;;;;5060750;28;20463;-96
2021/04/24 04:24:21;;;;;;;17.20;11.83;;;;;;;;;;5056778;28;20965;-95
2021/04/24 04:26:49;;;;;;;15.93;11.30;;;;;;;;;;5064136;28;20470;-96
2021/04/24 04:29:15;;;;;;;17.60;9.80;;;;;;;;;;5068784;28;20449;-95
2021/04/24 04:31:43;;;;;;;14.43;10.40;;;;;;;;;;5069668;28;20457;-96
2021/04/24 04:34:10;;;;;;;14.07;10.37;;;;;;;;;;5072157;28;20454;-96
2021/04/24 04:39:19;;;;;;;23.97;11.40;;;;;;;;;;5066494;28;20492;-96
2021/04/24 04:41:45;;;;;;;17.00;9.23;;;;;;;;;;5058919;28;20454;-95
2021/04/24 04:44:11;;;;;;;10.93;9.27;;;;;;;;;;5063198;28;20444;-96
2021/04/24 04:46:39;;;;;;;14.97;9.00;;;;;;;;;;5071060;28;20443;-96
2021/04/24 04:49:08;;;;;;;14.60;9.97;;;;;;;;;;5072053;28;20794;-96
2021/04/24 04:51:34;;;;;;;15.67;10.90;;;;;;;;;;5063066;28;20445;-96
2021/04/24 04:54:00;;;;;;;12.20;10.00;;;;;;;;;;5063434;28;20444;-96
2021/04/24 04:56:26;;;;;;;22.93;12.50;;;;;;;;;;5064789;28;20537;-96
2021/04/24 04:58:53;;;;;;;18.53;12.93;;;;;;;;;;5066817;28;20417;-96
2021/04/24 05:01:28;;;;;;;14.97;11.40;;;;;;;;;;5072487;28;20475;-96
2021/04/24 05:03:54;;;;;;;23.60;11.97;;;;;;;;;;5081420;28;20481;-96
2021/04/24 05:06:21;;;;;;;18.57;10.77;;;;;;;;;;5073747;28;20448;-96
2021/04/24 05:08:47;;;;;;;18.73;11.20;;;;;;;;;;5069559;28;20456;-96
2021/04/24 05:11:13;;;;;;;13.77;9.57;;;;;;;;;;5072242;28;20483;-96
2021/04/24 05:16:58;;;;;;;18.23;10.60;;;;;;;;;;5078855;28;20442;-96
2021/04/24 05:19:25;;;;;;;14.50;7.97;;;;;;;;;;5066683;23;20443;-96
2021/04/24 05:21:52;;;;;;;13.97;7.53;;;;;;;;;;5059143;28;20427;-96
2021/04/24 05:24:18;;;;;;;16.07;10.50;;;;;;;;;;5053260;28;20443;-96
2021/04/24 05:26:45;;;;;;;19.60;13.03;;;;;;;;;;5059339;28;20458;-96
2021/04/24 05:29:11;;;;;;;21.20;13.03;;;;;;;;;;5059434;28;20454;-96
2021/04/24 05:31:37;;;;;;;17.27;12.27;;;;;;;;;;5055893;28;21051;-96
2021/04/24 05:34:04;;;;;;;22.00;14.77;;;;;;;;;;5036809;28;20462;-96
2021/04/24 05:36:31;;;;;;;21.17;13.63;;;;;;;;;;5051095;28;20474;-96
2021/04/24 05:38:58;;;;;;;20.53;13.00;;;;;;;;;;5044089;28;20444;-96
2021/04/24 05:41:24;;;;;;;17.40;11.77;;;;;;;;;;5056402;28;21265;-96
2021/04/24 05:43:58;;;;;;;18.00;12.27;;;;;;;;;;5052133;28;20471;-96
2021/04/24 05:46:25;;;;;;;15.70;11.13;;;;;;;;;;5050356;28;20535;-96
2021/04/24 05:48:55;;;;;;;20.33;12.23;;;;;;;;;;5051310;28;20455;-96
2021/04/24 05:51:22;;;;;;;16.47;13.10;;;;;;;;;;5049330;28;20455;-96
2021/04/24 05:53:49;;;;;;;20.13;12.40;;;;;;;;;;5046434;28;20451;-96
2021/04/24 05:56:17;;;;;;;15.10;11.53;;;;;;;;;;5046872;28;20452;-95
2021/04/24 05:58:43;;;;;;;18.67;11.67;;;;;;;;;;5045863;28;20489;-96
2021/04/24 06:01:09;;;;;;;23.37;13.00;;;;;;;;;;5044259;28;20874;-96
2021/04/24 06:03:35;;;;;;;22.93;15.20;;;;;;;;;;5047328;28;20452;-96
2021/04/24 06:06:01;;;;;;;23.70;16.10;;;;;;;;;;5042861;28;20447;-96
2021/04/24 06:08:27;;;;;;;22.00;15.77;;;;;;;;;;5046442;28;22290;-96
2021/04/24 06:10:53;;;;;;;20.87;16.27;;;;;;;;;;5045202;28;20494;-96
2021/04/24 06:13:20;;;;;;;19.00;14.70;;;;;;;;;;5049678;28;20462;-95
2021/04/24 06:15:46;;;;;;;17.03;14.30;;;;;;;;;;5045193;28;20992;-96
2021/04/24 06:18:14;;;;;;;17.23;13.00;;;;;;;;;;5048077;28;20445;-96
2021/04/24 06:20:40;;;;;;;17.67;13.17;;;;;;;;;;5051342;28;20479;-96
2021/04/24 06:23:06;;;;;;;20.20;14.30;;;;;;;;;;5037181;28;20439;-95
2021/04/24 06:25:32;;;;;;;24.90;15.77;;;;;;;;;;5052946;28;20451;-96
2021/04/24 06:27:59;;;;;;;21.10;15.83;;;;;;;;;;5043887;28;20495;-95
2021/04/24 06:30:29;;;;;;;23.27;15.87;;;;;;;;;;5043918;28;20448;-96
2021/04/24 06:32:56;;;;;;;24.37;16.70;;;;;;;;;;5041091;28;20458;-94
2021/04/24 06:35:25;;;;;;;15.80;12.27;;;;;;;;;;5044619;28;20463;-94
2021/04/24 06:37:51;;;;;;;15.77;10.77;;;;;;;;;;5045204;28;20464;-96
2021/04/24 06:40:20;;;;;;;18.73;10.63;;;;;;;;;;5049304;28;20453;-96
2021/04/24 06:42:46;;;;;;;13.90;8.67;;;;;;;;;;5049683;28;20447;-96
2021/04/24 06:45:13;;;;;;;13.13;8.90;;;;;;;;;;5048769;28;20461;-96
2021/04/24 06:47:40;;;;;;;14.23;8.33;;;;;;;;;;5057703;28;20479;-94
2021/04/24 06:50:07;;;;;;;12.83;8.97;;;;;;;;;;5060660;28;20434;-92
2021/04/24 06:52:33;;;;;;;13.97;9.20;;;;;;;;;;5060559;28;20451;-94
2021/04/24 06:57:34;;;;;;;10.77;8.80;;;;;;;;;;2381323;22;20777;-96
2021/04/24 07:00:01;;;;;;;13.77;8.00;;;;;;;;;;5087433;28;20439;-96
2021/04/24 07:02:27;;;;;;;11.30;7.93;;;;;;;;;;5084869;28;20452;-96
2021/04/24 07:04:53;;;;;;;12.70;7.73;;;;;;;;;;5077814;28;20467;-96
2021/04/24 07:07:20;;;;;;;15.93;8.53;;;;;;;;;;5083246;28;20482;-96
2021/04/24 07:09:46;;;;;;;13.63;8.87;;;;;;;;;;5081219;28;20452;-96
2021/04/24 07:12:12;;;;;;;11.23;8.47;;;;;;;;;;5068167;28;20457;-96
2021/04/24 07:14:38;;;;;;;14.03;8.50;;;;;;;;;;5062609;28;20446;-96
2021/04/24 07:17:04;;;;;;;10.00;8.10;;;;;;;;;;5083613;28;20442;-96
2021/04/24 07:19:30;;;;;;;10.20;8.20;;;;;;;;;;5084195;28;20473;-96
2021/04/24 07:21:57;;;;;;;17.57;8.60;;;;;;;;;;5079065;28;20434;-96
2021/04/24 07:24:23;;;;;;;12.23;8.33;;;;;;;;;;5086010;28;20469;-95
2021/04/24 07:26:49;;;;;;;14.90;7.97;;;;;;;;;;5088769;28;20480;-96
2021/04/24 07:29:16;;;;;;;11.00;8.53;;;;;;;;;;5089583;28;20492;-96
2021/04/24 07:31:43;;;;;;;12.13;7.53;;;;;;;;;;5093300;28;20452;-96
2021/04/24 07:34:11;;;;;;;10.23;7.87;;;;;;;;;;5245474;22;20568;-96
2021/04/24 07:36:37;;;;;;;12.30;7.47;;;;;;;;;;5111384;28;20466;-96
2021/04/24 07:39:04;;;;;;;12.77;8.10;;;;;;;;;;5106423;28;20446;-96
2021/04/24 07:41:31;;;;;;;11.50;7.97;;;;;;;;;;5110919;28;20463;-96
2021/04/24 07:43:57;;;;;;;15.13;7.80;;;;;;;;;;5111578;28;20486;-96
2021/04/24 07:46:23;;;;;;;12.73;7.90;;;;;;;;;;5091553;28;20450;-96
2021/04/24 07:48:49;;;;;;;14.10;8.40;;;;;;;;;;5110767;28;20480;-96
2021/04/24 07:51:15;;;;;;;11.30;8.07;;;;;;;;;;5103173;28;20478;-94
2021/04/24 07:53:42;;;;;;;8.77;7.40;;;;;;;;;;5104746;28;20505;-95
2021/04/24 07:56:09;;;;;;;13.57;8.30;;;;;;;;;;5096702;28;20445;-93
2021/04/24 07:58:35;;;;;;;11.33;7.77;;;;;;;;;;5099201;28;20465;-95
2021/04/24 08:01:01;;;;;;;10.47;7.90;;;;;;;;;;5101321;28;20459;-96
2021/04/24 08:03:27;;;;;;;12.63;8.07;;;;;;;;;;5102637;28;20454;-96
2021/04/24 08:05:53;;;;;;;14.10;8.57;;;;;;;;;;5100611;28;20431;-95
2021/04/24 08:08:23;;;;;;;12.90;7.73;;;;;;;;;;5106773;28;20497;-96
2021/04/24 08:10:49;;;;;;;10.10;7.57;;;;;;;;;;5083255;28;20471;-96
2021/04/24 08:13:18;;;;;;;13.77;8.17;;;;;;;;;;5112552;22;20503;-95
2021/04/24 08:15:44;;;;;;;14.27;8.10;;;;;;;;;;5098218;28;20467;-95
2021/04/24 08:18:10;;;;;;;16.80;8.50;;;;;;;;;;5101704;28;20443;-96
2021/04/24 08:20:36;;;;;;;13.33;8.27;;;;;;;;;;5100960;28;20517;-95
2021/04/24 08:23:02;;;;;;;13.30;8.43;;;;;;;;;;5099703;28;20450;-96
2021/04/24 08:25:28;;;;;;;11.57;7.90;;;;;;;;;;5100383;28;20443;-96
2021/04/24 08:27:54;;;;;;;10.60;8.00;;;;;;;;;;5099621;28;20505;-91
2021/04/24 08:30:22;;;;;;;12.17;7.63;;;;;;;;;;5094528;28;20447;-94
2021/04/24 08:32:48;;;;;;;12.50;8.63;;;;;;;;;;5099476;28;20544;-94
2021/04/24 08:35:15;;;;;;;13.10;8.57;;;;;;;;;;5101511;28;20466;-94
2021/04/24 08:37:41;;;;;;;12.10;8.17;;;;;;;;;;5102443;28;20459;-94
2021/04/24 08:40:08;;;;;;;12.10;8.77;;;;;;;;;;5107176;28;20508;-96
2021/04/24 08:42:35;;;;;;;17.87;9.53;;;;;;;;;;5101345;28;20470;-96
2021/04/24 08:45:01;;;;;;;10.90;9.30;;;;;;;;;;5106772;28;20469;-96
2021/04/24 08:47:28;;;;;;;14.80;8.50;;;;;;;;;;5108148;28;20521;-96
2021/04/24 08:49:54;;;;;;;13.77;9.27;;;;;;;;;;5109149;28;20444;-96
2021/04/24 08:52:20;;;;;;;16.33;9.33;;;;;;;;;;5107849;28;20503;-96
2021/04/24 08:54:46;;;;;;;12.80;9.40;;;;;;;;;;5110518;28;20456;-96
2021/04/24 08:57:12;;;;;;;17.20;10.33;;;;;;;;;;5104504;28;20471;-96
2021/04/24 08:59:39;;;;;;;14.33;9.93;;;;;;;;;;5112211;28;20444;-96
2021/04/24 09:02:05;;;;;;;16.87;10.37;;;;;;;;;;5109058;28;20455;-95
2021/04/24 09:04:32;;;;;;;16.67;10.67;;;;;;;;;;5100103;28;20463;-94
2021/04/24 09:06:58;;;;;;;17.50;10.70;;;;;;;;;;5106929;28;20428;-96
2021/04/24 09:09:26;;;;;;;17.00;10.17;;;;;;;;;;5103161;28;20444;-96
2021/04/24 09:11:56;;;;;;;15.10;10.33;;;;;;;;;;5114323;28;20436;-96
2021/04/24 09:14:22;;;;;;;12.87;9.57;;;;;;;;;;5111381;28;20466;-96
2021/04/24 09:16:50;;;;;;;13.10;9.37;;;;;;;;;;5107459;28;20477;-96
2021/04/24 09:19:29;;;;;;;12.50;9.40;;;;;;;;;;5106951;28;20436;-96
2021/04/24 09:22:11;;;;;;;25.53;12.20;;;;;;;;;;5112476;28;21313;-96
2021/04/24 09:24:38;;;;;;;18.97;9.70;;;;;;;;;;5109245;28;20457;-96
2021/04/24 09:27:05;;;;;;;14.60;9.40;;;;;;;;;;5114406;28;20428;-96
2021/04/24 09:29:31;;;;;;;17.33;9.13;;;;;;;;;;5101374;28;20452;-96
2021/04/24 09:32:11;;;;;;;14.27;9.43;;;;;;;;;;5100987;28;20490;-96
2021/04/24 09:34:37;;;;;;;15.17;9.03;;;;;;;;;;5093977;28;20527;-96
2021/04/24 09:37:03;;;;;;;16.10;10.03;;;;;;;;;;5099580;28;20456;-96
2021/04/24 09:39:43;;;;;;;13.10;9.53;;;;;;;;;;5103745;28;20452;-96
2021/04/24 09:42:28;;;;;;;12.90;9.80;;;;;;;;;;5110425;28;20462;-96
2021/04/24 09:44:54;;;;;;;16.67;9.70;;;;;;;;;;5101991;28;20940;-95
2021/04/24 09:47:20;;;;;;;13.30;8.00;;;;;;;;;;5104468;28;20563;-96
2021/04/24 09:49:46;;;;;;;14.90;9.30;;;;;;;;;;5104289;28;20455;-96
2021/04/24 09:52:21;;;;;;;15.40;10.10;;;;;;;;;;5108597;28;20447;-96
2021/04/24 09:54:57;;;;;;;17.00;11.10;;;;;;;;;;5116818;28;20427;-96
2021/04/24 09:57:23;;;;;;;16.10;9.97;;;;;;;;;;5113748;28;20444;-96
2021/04/24 09:59:52;;;;;;;11.50;9.03;;;;;;;;;;5094598;28;20478;-96
2021/04/24 10:02:28;;;;;;;10.77;8.80;;;;;;;;;;5104731;28;20460;-94
2021/04/24 10:05:04;;;;;;;13.17;7.53;;;;;;;;;;5103562;28;20498;-95
2021/04/24 10:07:33;;;;;;;11.87;8.33;;;;;;;;;;5105924;28;20497;-95
2021/04/24 10:10:01;;;;;;;11.03;7.93;;;;;;;;;;5105262;28;20440;-96
2021/04/24 10:12:27;;;;;;;8.90;7.60;;;;;;;;;;5104672;28;20463;-95
2021/04/24 10:14:54;;;;;;;9.87;7.30;;;;;;;;;;5107192;28;20455;-94
2021/04/24 10:17:20;;;;;;;12.70;7.17;;;;;;;;;;5100107;28;20456;-96
2021/04/24 10:19:47;;;;;;;12.03;7.00;;;;;;;;;;5102502;28;20475;-94
2021/04/24 10:22:14;;;;;;;12.03;7.53;;;;;;;;;;5099681;28;20455;-96
2021/04/24 10:24:41;;;;;;;13.20;7.90;;;;;;;;;;5097915;28;20476;-95
2021/04/24 10:27:08;;;;;;;9.93;7.23;;;;;;;;;;5095683;28;20456;-94
2021/04/24 10:29:35;;;;;;;8.60;7.00;;;;;;;;;;5094978;28;20448;-95
2021/04/24 10:32:01;;;;;;;11.17;7.00;;;;;;;;;;5100254;28;20463;-93
2021/04/24 10:34:27;;;;;;;10.73;6.97;;;;;;;;;;5101947;28;20445;-95
2021/04/24 10:36:53;;;;;;;13.23;6.60;;;;;;;;;;5101704;28;20452;-95
2021/04/24 10:39:21;;;;;;;14.63;8.03;;;;;;;;;;5103596;28;20452;-95
2021/04/24 10:41:48;;;;;;;14.63;8.60;;;;;;;;;;5100574;28;20464;-95
2021/04/24 10:44:16;;;;;;;15.47;8.90;;;;;;;;;;5102261;28;20445;-95
2021/04/24 10:46:46;;;;;;;14.93;9.40;;;;;;;;;;5101091;28;20452;-95
2021/04/24 10:49:33;;;;;;;13.30;7.97;;;;;;;;;;5102819;28;20539;-95
2021/04/24 10:52:01;;;;;;;10.63;8.30;;;;;;;;;;5101387;28;20448;-94
2021/04/24 10:54:27;;;;;;;15.83;7.77;;;;;;;;;;5106823;28;20464;-93
2021/04/24 10:56:54;;;;;;;9.17;7.70;;;;;;;;;;5098548;28;20472;-96
2021/04/24 10:59:25;;;;;;;8.63;7.30;;;;;;;;;;5101534;28;20440;-96
2021/04/24 11:02:08;;;;;;;14.60;8.07;;;;;;;;;;5104688;28;20432;-94
2021/04/24 11:04:41;;;;;;;11.73;7.07;;;;;;;;;;5094676;28;20456;-95
2021/04/24 11:07:17;;;;;;;11.30;6.93;;;;;;;;;;5106642;28;20466;-96
2021/04/24 11:09:43;;;;;;;13.10;7.10;;;;;;;;;;5107384;28;20450;-95
2021/04/24 11:12:10;;;;;;;12.70;7.80;;;;;;;;;;5109150;28;20459;-95
2021/04/24 11:14:36;;;;;;;16.13;7.70;;;;;;;;;;5097723;28;20468;-96
2021/04/24 11:17:03;;;;;;;11.53;8.10;;;;;;;;;;5104753;28;20448;-95
2021/04/24 11:19:42;;;;;;;11.20;7.70;;;;;;;;;;5098415;28;20487;-95
2021/04/24 11:22:38;;;;;;;12.00;8.53;;;;;;;;;;5099981;28;20455;-96
2021/04/24 11:25:23;;;;;;;12.93;8.80;;;;;;;;;;5063522;28;21021;-96
2021/04/24 11:28:05;;;;;;;13.13;8.30;;;;;;;;;;5108091;28;20472;-96
2021/04/24 11:30:51;;;;;;;14.10;8.50;;;;;;;;;;5106659;22;20513;-96
2021/04/24 11:33:31;;;;;;;13.23;7.57;;;;;;;;;;5071873;23;20457;-96
2021/04/24 11:36:16;;;;;;;12.37;7.67;;;;;;;;;;5142622;22;20494;-96
2021/04/24 11:39:03;;;;;;;10.23;7.00;;;;;;;;;;5056331;28;20469;-96
2021/04/24 11:41:30;;;;;;;9.40;6.90;;;;;;;;;;5068127;22;20498;-96
2021/04/24 11:43:56;;;;;;;13.23;9.27;;;;;;;;;;5084849;23;20515;-96
2021/04/24 11:49:09;;;;;;;17.50;7.17;;;;;;;;;;4854667;26;22528;-96
2021/04/24 11:51:37;;;;;;;11.43;6.73;;;;;;;;;;5061399;28;20445;-96
2021/04/24 12:01:47;;;;;;;10.20;6.20;;;;;;;;;;5106823;28;20491;-96
2021/04/24 12:04:31;;;;;;;9.50;6.17;;;;;;;;;;5084669;28;20440;-96
2021/04/24 12:07:04;;;;;;;12.60;6.27;;;;;;;;;;5112237;28;20444;-96
2021/04/24 12:09:30;;;;;;;8.67;6.13;;;;;;;;;;5167259;22;20484;-96
2021/04/24 12:11:57;;;;;;;10.50;6.00;;;;;;;;;;5067579;28;20736;-96
2021/04/24 12:14:24;;;;;;;11.30;6.80;;;;;;;;;;5073334;28;20433;-96
2021/04/24 12:16:51;;;;;;;10.77;6.57;;;;;;;;;;5068103;28;20461;-96
2021/04/24 12:19:28;;;;;;;9.03;6.30;;;;;;;;;;5067304;28;20473;-96
2021/04/24 12:22:03;;;;;;;9.77;5.60;;;;;;;;;;5068402;28;20480;-96
2021/04/24 12:24:30;;;;;;;18.47;7.07;;;;;;;;;;5068763;28;20457;-96
2021/04/24 12:26:56;;;;;;;10.10;6.27;;;;;;;;;;5067953;28;20453;-96
2021/04/24 12:32:13;;;;;;;9.03;6.63;;;;;;;;;;5042794;26;20499;-96
2021/04/24 12:37:50;;;;;;;8.30;6.70;;;;;;;;;;5084228;28;20441;-96
2021/04/24 12:42:41;;;;;;;9.17;5.73;;;;;;;;;;5061810;22;20481;-96
2021/04/24 12:45:09;;;;;;;9.07;6.20;;;;;;;;;;5063674;28;20470;-96
2021/04/24 12:47:36;;;;;;;9.93;6.73;;;;;;;;;;5048548;28;20457;-96
2021/04/24 12:50:06;;;;;;;10.60;6.60;;;;;;;;;;5068136;28;20446;-96
2021/04/24 12:52:42;;;;;;;9.37;6.60;;;;;;;;;;5219454;22;20541;-96
2021/04/24 12:55:09;;;;;;;8.50;5.93;;;;;;;;;;5100294;28;20483;-96
2021/04/24 12:57:36;;;;;;;15.33;6.40;;;;;;;;;;5065875;28;20457;-96
2021/04/24 13:00:04;;;;;;;12.97;6.27;;;;;;;;;;5095268;28;20452;-96
2021/04/24 13:02:33;;;;;;;9.00;5.70;;;;;;;;;;5093297;28;20482;-96
2021/04/24 13:05:00;;;;;;;8.60;5.70;;;;;;;;;;5080558;28;20448;-96
2021/04/24 13:07:28;;;;;;;8.70;5.67;;;;;;;;;;5093340;28;20480;-96
2021/04/24 13:09:55;;;;;;;6.70;6.00;;;;;;;;;;5097126;28;20520;-95
2021/04/24 13:12:21;;;;;;;7.93;6.50;;;;;;;;;;5092213;28;20529;-96
2021/04/24 13:14:48;;;;;;;8.43;6.20;;;;;;;;;;5092314;28;20477;-96
2021/04/24 13:17:16;;;;;;;10.30;6.90;;;;;;;;;;5094854;28;20436;-96
2021/04/24 13:19:46;;;;;;;12.93;6.80;;;;;;;;;;5090980;28;20460;-96
2021/04/24 13:22:12;;;;;;;10.63;7.30;;;;;;;;;;5093915;28;20959;-96
2021/04/24 13:24:43;;;;;;;11.13;6.90;;;;;;;;;;5099433;28;20444;-96
2021/04/24 13:27:23;;;;;;;15.93;6.37;;;;;;;;;;5105866;28;20440;-96
2021/04/24 13:29:51;;;;;;;6.80;5.83;;;;;;;;;;5092198;28;20523;-96
2021/04/24 13:32:17;;;;;;;8.53;6.00;;;;;;;;;;5102704;28;20460;-95
2021/04/24 13:34:44;;;;;;;9.10;6.50;;;;;;;;;;5101863;28;20974;-96
2021/04/24 13:37:11;;;;;;;11.00;6.60;;;;;;;;;;5105278;28;20456;-96
2021/04/24 13:39:48;;;;;;;9.07;7.17;;;;;;;;;;5110660;28;20444;-96
2021/04/24 13:42:16;;;;;;;13.30;6.70;;;;;;;;;;5099018;28;20456;-96
2021/04/24 13:44:44;;;;;;;10.27;5.87;;;;;;;;;;5102239;22;20493;-96
2021/04/24 13:47:18;;;;;;;8.60;6.50;;;;;;;;;;5066166;28;20481;-94
2021/04/24 13:49:44;;;;;;;10.60;6.37;;;;;;;;;;5073975;28;20452;-96
2021/04/24 13:52:10;;;;;;;9.90;5.90;;;;;;;;;;5089567;22;20489;-95
2021/04/24 13:54:37;;;;;;;10.60;6.00;;;;;;;;;;5077688;28;20536;-96
2021/04/24 13:57:03;;;;;;;10.83;5.97;;;;;;;;;;5054875;28;20461;-96
2021/04/24 13:59:29;;;;;;;10.97;6.57;;;;;;;;;;5082340;22;23011;-96
2021/04/24 14:01:56;;;;;;;15.37;6.43;;;;;;;;;;5086455;22;20493;-96
2021/04/24 14:04:23;;;;;;;11.60;6.30;;;;;;;;;;5063304;28;20473;-96
2021/04/24 14:06:49;;;;;;;10.40;6.17;;;;;;;;;;5070436;28;20446;-95
2021/04/24 14:09:15;;;;;;;7.53;6.00;;;;;;;;;;5068232;28;20493;-95
2021/04/24 14:11:42;;;;;;;6.63;5.60;;;;;;;;;;5068012;28;20892;-96
2021/04/24 14:14:08;;;;;;;10.63;5.90;;;;;;;;;;5064912;28;20481;-94
2021/04/24 14:16:35;;;;;;;9.17;6.27;;;;;;;;;;5061996;28;20457;-96
2021/04/24 14:19:16;;;;;;;9.10;5.87;;;;;;;;;;5067219;28;20454;-96
2021/04/24 14:21:43;;;;;;;12.83;6.40;;;;;;;;;;5101993;22;20488;-96
2021/04/24 14:26:52;;;;;;;11.90;5.40;;;;;;;;;;5081515;28;20465;-95
2021/04/24 14:29:18;;;;;;;11.17;6.50;;;;;;;;;;5082294;28;20544;-96
2021/04/24 14:31:52;;;;;;;6.80;5.90;;;;;;;;;;5086061;28;20500;-96
2021/04/24 14:34:18;;;;;;;8.53;5.90;;;;;;;;;;5086386;28;20441;-96
2021/04/24 14:36:46;;;;;;;7.20;6.00;;;;;;;;;;5086963;28;20982;-96
2021/04/24 14:39:12;;;;;;;9.70;6.13;;;;;;;;;;5086627;28;20457;-96
2021/04/24 14:41:40;;;;;;;9.27;5.30;;;;;;;;;;5087919;28;20454;-96
2021/04/24 14:44:06;;;;;;;6.47;5.20;;;;;;;;;;5085504;28;20433;-96
2021/04/24 14:46:33;;;;;;;12.13;6.37;;;;;;;;;;5082431;28;20461;-95
2021/04/24 14:49:02;;;;;;;8.93;5.93;;;;;;;;;;5078410;28;20489;-96
2021/04/24 14:51:31;;;;;;;9.87;5.40;;;;;;;;;;5092151;28;20441;-96
2021/04/24 14:53:58;;;;;;;6.37;5.47;;;;;;;;;;5088496;28;21381;-95
2021/04/24 14:56:24;;;;;;;10.43;5.90;;;;;;;;;;5085033;28;20453;-96
2021/04/24 14:58:50;;;;;;;10.63;5.43;;;;;;;;;;5077009;28;20444;-96
2021/04/24 15:06:23;;;;;;;9.50;5.10;;;;;;;;;;5102439;28;20484;-96
2021/04/24 15:08:49;;;;;;;8.50;5.40;;;;;;;;;;5100316;28;20484;-96
2021/04/24 15:11:16;;;;;;;8.40;4.63;;;;;;;;;;5104985;28;20479;-96
2021/04/24 15:13:42;;;;;;;7.53;4.90;;;;;;;;;;5101409;28;20459;-96
2021/04/24 15:16:08;;;;;;;9.63;5.50;;;;;;;;;;5103974;28;20453;-95
2021/04/24 15:18:34;;;;;;;7.87;5.10;;;;;;;;;;5085056;28;21878;-95